Oak Point, Texas
Current Conditions -  °F | °C
As of 5:53 PM on Saturday 25 Oct 2014 (Local Time) from KDTO Reporting Station
Clear Clear  
Wind Chill: 85°   Ceiling: Unl
Heat Index: 85°   Visibility: 10mi
Dew Point: 59°   Wind: 8mph
Humidity: 41%   Direction: 190°S
Pressure: 30.04"   Gusts: NA
Location:  33.1913°N, 96.9829°W
Report Text: KDTO 252253Z 19007KT 10SM CLR 29/15 A3004 RMK AO2 SLP165 T02940150
Loading
Personal Weather Stations






























Interactive Weather Map
Tropical Storm Tracking
New forecast layout! Learn more

10-Day Weather Forecast

Advertisements
Track Severe Weather on mobile